LFBZ/BIQ METAR and TAF weather

Enter ICAO airport designator
Station Type Date Time Source
LFBZ METAR 2019/02/22 22:30 UTC NOAA

LFBZ 222230Z AUTO 11005KT CAVOK 12/03 Q1028 NOSIG


Station Type Date Time Source
LFBZ Decoded METAR 2019/02/22 22:30 UTC NOAA

Biarritz, France (LFBZ) 43-28N 001-32W 71M
Feb 22, 2019 - 05:30 PM EST / 2019.02.22 2230 UTC
Wind: from the ESE (110 degrees) at 6 MPH (5 KT):0
Visibility: greater than 7 mile(s):0
Temperature: 53 F (12 C)
Dew Point: 37 F (3 C)
Relative Humidity: 54%
Pressure (altimeter): 30.36 in. Hg (1028 hPa)
ob: LFBZ 222230Z AUTO 11005KT CAVOK 12/03 Q1028 NOSIG
cycle: 22

Station Type Date Time Source
LFBZ TAF 2019/02/22 18:21 UTC NOAA

TAF LFBZ 221700Z 2218/2318 06010KT CAVOK
BECMG 2218/2220 12005KT
BECMG 2310/2312 27010KT


Example: see airport list